METAR Data
IDs: Format: Raw Decoded Include TAF

Data at: 0137 UTC 16 Jan 2019

KSOA 160115Z AUTO 18007KT 10SM OVC006 08/07 A3027 RMK AO2
KSOA 160055Z AUTO 19007KT 10SM OVC007 08/06 A3027 RMK AO2
KSOA 160035Z AUTO 19006KT 10SM OVC007 08/06 A3027 RMK AO2
KSOA 160015Z AUTO 20006KT 10SM OVC007 08/06 A3026 RMK AO2
KSOA 152355Z AUTO 18008KT OVC009 08/06 A3026 RMK AO2
KSOA 152335Z AUTO 19007KT 10SM OVC010 08/06 A3025 RMK AO2
KSOA 152315Z AUTO 20006KT 10SM OVC011 09/06 A3025 RMK AO2
KSOA 152255Z AUTO 19005KT 10SM OVC011 09/06 A3025 RMK AO2
KSOA 152235Z AUTO 00000KT OVC011 09/06 A3025 RMK AO2
KSOA 152215Z AUTO 19004KT 10SM OVC011 09/06 A3025 RMK AO2
KSOA 152155Z AUTO 00000KT 10SM OVC010 09/06 A3026 RMK AO2
KSOA 152135Z AUTO 20005KT 10SM OVC009 08/06 A3026 RMK AO2
KSOA 152115Z AUTO 22006KT 10SM OVC009 08/06 A3027 RMK AO2
KSOA 152055Z AUTO 21005KT 9SM OVC008 08/06 A3026 RMK AO2
KSOA 152035Z AUTO 20004KT 8SM OVC007 08/06 A3026 RMK AO2
KSOA 152015Z AUTO 21005KT 8SM 08/06 A3027 RMK AO2
KSOA 151955Z AUTO 20005KT 8SM OVC007 08/06 A3028 RMK AO2
KSOA 151935Z AUTO VRB03KT 7SM OVC006 08/06 A3029 RMK AO2
KSOA 151915Z AUTO 21006KT 9SM OVC007 08/06 A3029 RMK AO2
KSOA 151855Z AUTO 20007KT 9SM OVC007 08/06 A3031 RMK AO2
KSOA 151835Z AUTO 20006KT 9SM OVC007 08/06 A3033 RMK AO2
KSOA 151815Z AUTO 21004KT 9SM OVC007 08/06 A3035 RMK AO2
KSOA 151755Z AUTO 21005KT 9SM OVC007 07/06 A3035 RMK AO2
KSOA 151735Z AUTO 18006KT 9SM OVC006 07/06 A3035 RMK AO2
KSOA 151715Z AUTO 18005KT 8SM OVC006 07/06 A3035 RMK AO2
KSOA 151655Z AUTO 17009KT 8SM OVC005 07/06 A3035 RMK AO2
KSOA 151635Z AUTO 18009KT 7SM OVC005 06/06 A3036 RMK AO2
KSOA 151615Z AUTO 18008KT 7SM OVC004 06/06 A3036 RMK AO2
KSOA 151555Z AUTO 16006KT 6SM BR OVC004 06/06 A3036 RMK AO2
KSOA 151535Z AUTO 17005KT 5SM BR OVC003 06/06 A3035 RMK AO2
KSOA 151515Z AUTO 17005KT 3SM BR OVC003 06/06 A3036 RMK AO2
KSOA 151455Z AUTO 16006KT 3SM BR OVC002 06/06 A3034 RMK AO2
KSOA 151435Z AUTO 16005KT 1 3/4SM BR OVC002 06/06 A3034 RMK AO2
KSOA 151415Z AUTO 00000KT 1 3/4SM BR OVC002 06/06 A3034 RMK AO2
KSOA 151355Z AUTO 17005KT 2SM BR OVC003 06/06 A3034 RMK AO2
KSOA 151335Z AUTO 18005KT 2 1/2SM BR BKN004 OVC007 06/06 A3034 RMK AO2
KSOA 151315Z AUTO 18004KT 4SM BR OVC005 06/05 A3033 RMK AO2
KSOA 151255Z AUTO 00000KT 4SM BR OVC005 06/05 A3033 RMK AO2
KSOA 151235Z AUTO 18003KT 4SM BR OVC007 06/05 A3032 RMK AO2
KSOA 151215Z AUTO 17006KT 5SM BR BKN007 OVC010 07/05 A3032 RMK AO2
KSOA 151155Z AUTO 17005KT 9SM OVC008 07/05 A3031 RMK AO2
KSOA 151135Z AUTO 00000KT 10SM BKN008 BKN019 07/05 A3030 RMK AO2
KSOA 151115Z AUTO 00000KT 10SM FEW009 OVC018 07/05 A3030 RMK AO2
KSOA 151055Z AUTO 00000KT 10SM OVC018 07/05 A3030 RMK AO2
KSOA 151035Z AUTO 00000KT 10SM OVC014 07/05 A3031 RMK AO2
KSOA 151015Z AUTO 00000KT 10SM BKN015 OVC020 07/04 A3032 RMK AO2
KSOA 150955Z AUTO 19003KT 10SM OVC017 07/04 A3033 RMK AO2
KSOA 150935Z AUTO 19004KT 10SM OVC018 07/04 A3033 RMK AO2
KSOA 150915Z AUTO 18004KT 10SM OVC018 08/04 A3033 RMK AO2
KSOA 150855Z AUTO 00000KT 10SM OVC020 08/04 A3032 RMK AO2
KSOA 150835Z AUTO 00000KT 10SM OVC020 08/04 A3032 RMK AO2
KSOA 150815Z AUTO 00000KT 10SM OVC019 08/05 A3033 RMK AO2
KSOA 150755Z AUTO 00000KT 10SM OVC016 08/05 A3033 RMK AO2
KSOA 150735Z AUTO 00000KT OVC015 08/05 A3033 RMK AO2
KSOA 150715Z AUTO 00000KT 10SM OVC017 08/05 A3032 RMK AO2
KSOA 150655Z AUTO 00000KT 10SM OVC018 08/04 A3033 RMK AO2
KSOA 150635Z AUTO 00000KT 10SM OVC020 08/04 A3034 RMK AO2
KSOA 150615Z AUTO 00000KT 10SM OVC021 08/04 A3035 RMK AO2
KSOA 150555Z AUTO 00000KT 10SM OVC020 08/04 A3036 RMK AO2
KSOA 150535Z AUTO 15003KT 10SM OVC020 08/04 A3037 RMK AO2
KSOA 150515Z AUTO 00000KT 10SM OVC020 08/04 A3037 RMK AO2
KSOA 150455Z AUTO 00000KT 10SM OVC019 08/04 A3037 RMK AO2
KSOA 150435Z AUTO 00000KT 10SM OVC020 08/04 A3036 RMK AO2
KSOA 150415Z AUTO 00000KT 10SM OVC021 08/04 A3036 RMK AO2
KSOA 150355Z AUTO 00000KT 10SM OVC022 08/04 A3036 RMK AO2
KSOA 150335Z AUTO 00000KT 10SM OVC022 08/04 A3036 RMK AO2
KSOA 150315Z AUTO 00000KT 10SM BKN022 08/04 A3035 RMK AO2
KSOA 150255Z AUTO 00000KT 10SM OVC021 08/04 A3036 RMK AO2
KSOA 150235Z AUTO 00000KT 10SM OVC021 08/04 A3038 RMK AO2
KSOA 150215Z AUTO 00000KT 10SM OVC023 08/04 A3038 RMK AO2
KSOA 150155Z AUTO 00000KT 10SM OVC025 08/04 A3038 RMK AO2
KSOA 150135Z AUTO 00000KT 10SM OVC026 08/04 A3038 RMK AO2
KSOA 150115Z AUTO 00000KT 10SM OVC027 08/04 A3038 RMK AO2
KSOA 150055Z AUTO 00000KT 10SM OVC027 08/04 A3037 RMK AO2
KSOA 150035Z AUTO 00000KT 10SM OVC029 08/04 A3037 RMK AO2
KSOA 150015Z AUTO 00000KT 10SM OVC029 08/04 A3035 RMK AO2
KSOA 142355Z AUTO 11003KT 10SM OVC029 08/03 A3034 RMK AO2
KSOA 142335Z AUTO 12004KT 10SM OVC029 08/03 A3034 RMK AO2
KSOA 142315Z AUTO 00000KT 10SM OVC031 08/03 A3035 RMK AO2
KSOA 142255Z AUTO 10006KT 10SM OVC031 09/03 A3035 RMK AO2
KSOA 142235Z AUTO 00000KT 10SM OVC031 08/03 A3036 RMK AO2
KSOA 142215Z AUTO 00000KT 10SM OVC031 08/03 A3036 RMK AO2
KSOA 142155Z AUTO 00000KT 10SM OVC031 08/03 A3036 RMK AO2
KSOA 142135Z AUTO 00000KT 10SM OVC031 08/03 A3036 RMK AO2
KSOA 142115Z AUTO 00000KT 10SM OVC031 08/03 A3037 RMK AO2
KSOA 142055Z AUTO 00000KT 10SM OVC031 08/03 A3038 RMK AO2
KSOA 142035Z AUTO 00000KT 10SM FEW025 OVC031 08/03 A3039 RMK AO2
KSOA 142015Z AUTO 00000KT 10SM BKN024 BKN031 08/03 A3040 RMK AO2
KSOA 141955Z AUTO 00000KT 10SM OVC022 07/02 A3040 RMK AO2
KSOA 141935Z AUTO 00000KT 10SM BKN021 BKN030 07/02 A3040 RMK AO2
KSOA 141915Z AUTO 00000KT 10SM FEW022 BKN029 BKN060 07/02 A3041 RMK AO2
KSOA 141855Z AUTO 00000KT 10SM BKN028 07/02 A3042 RMK AO2
KSOA 141835Z AUTO 00000KT 10SM BKN028 06/02 A3044 RMK AO2
KSOA 141815Z AUTO 00000KT 10SM BKN027 06/02 A3045 RMK AO2
KSOA 141755Z AUTO 00000KT 10SM OVC027 06/02 A3046 RMK AO2
KSOA 141735Z AUTO 00000KT 10SM BKN027 OVC090 06/02 A3048 RMK AO2
KSOA 141715Z AUTO 00000KT 10SM OVC029 05/01 A3048 RMK AO2
KSOA 141655Z AUTO 00000KT 10SM OVC028 05/01 A3049 RMK AO2
KSOA 141635Z AUTO 00000KT 10SM BKN027 05/01 A3048 RMK AO2
KSOA 141615Z AUTO 00000KT 10SM BKN027 BKN036 04/01 A3048 RMK AO2
KSOA 141555Z AUTO 00000KT 10SM BKN026 BKN032 04/01 A3048 RMK AO2
KSOA 141535Z AUTO 00000KT 10SM BKN029 OVC033 04/01 A3047 RMK AO2
KSOA 141515Z AUTO 00000KT 10SM BKN031 03/01 A3046 RMK AO2
KSOA 141455Z AUTO 05004KT 10SM BKN032 03/00 A3046 RMK AO2
KSOA 141435Z AUTO 00000KT 10SM OVC034 03/00 A3046 RMK AO2
KSOA 141415Z AUTO 00000KT 10SM 03/00 A3045 RMK AO2
KSOA 141355Z AUTO 05005KT 10SM 03/00 A3045 RMK AO2